Time;durP1;ratioP1;P1;durP2;ratioP2;P2;SDS_P1;SDS_P2;PMS_P1;PMS_P2;Temp;Humidity;BMP_temperature;BMP_pressure;BME280_temperature;BME280_humidity;BME280_pressure;Samples;Min_cycle;Max_cycle;Signal;HPM_P1;HPM_P2
2022/11/26 00:00:57;;;;;;;2.37;1.00;;;28.50;99.90;;;;;;5094759;28;20180;-66
2022/11/26 00:03:24;;;;;;;7.63;1.47;;;28.90;95.80;;;;;;5094615;28;20231;-66
2022/11/26 00:05:56;;;;;;;2.03;0.93;;;28.70;99.90;;;;;;5095022;28;20692;-67
2022/11/26 00:08:32;;;;;;;2.83;1.07;;;28.90;95.40;;;;;;5095041;28;20245;-66
2022/11/26 00:11:01;;;;;;;2.27;0.90;;;28.90;98.90;;;;;;5094868;28;20649;-67
2022/11/26 00:13:30;;;;;;;2.70;1.07;;;29.50;92.00;;;;;;5095025;28;20199;-66
2022/11/26 00:15:58;;;;;;;4.63;1.50;;;29.60;91.50;;;;;;5094658;28;20176;-66
2022/11/26 00:18:26;;;;;;;4.27;1.10;;;29.50;86.30;;;;;;5094694;28;20258;-67
2022/11/26 00:21:00;;;;;;;4.60;1.40;;;29.50;84.10;;;;;;5093921;28;20644;-66
2022/11/26 00:23:28;;;;;;;3.83;1.10;;;29.30;81.00;;;;;;5094681;28;20233;-66
2022/11/26 00:26:01;;;;;;;4.37;1.00;;;28.90;89.40;;;;;;5094518;28;20178;-66
2022/11/26 00:28:35;;;;;;;4.63;1.50;;;29.10;91.60;;;;;;5094477;28;20225;-66
2022/11/26 00:31:06;;;;;;;1.83;1.13;;;30.10;91.50;;;;;;5094584;28;20675;-66
2022/11/26 00:33:35;;;;;;;2.30;1.10;;;29.30;82.00;;;;;;5094294;28;20178;-70
2022/11/26 00:36:24;;;;;;;3.83;1.20;;;27.60;83.60;;;;;;5094323;28;20641;-66
2022/11/26 00:39:01;;;;;;;2.70;1.17;;;26.90;93.20;;;;;;5094347;28;20171;-67
2022/11/26 00:41:38;;;;;;;4.67;1.13;;;26.30;91.90;;;;;;5094366;28;20640;-67
2022/11/26 00:44:22;;;;;;;6.67;1.40;;;26.70;96.80;;;;;;5094233;28;20293;-67
2022/11/26 00:46:50;;;;;;;5.93;1.33;;;27.20;92.30;;;;;;5094500;28;20171;-67
2022/11/26 00:49:19;;;;;;;4.13;1.60;;;27.10;92.10;;;;;;5094037;28;20207;-67
2022/11/26 00:51:47;;;;;;;3.03;1.27;;;26.60;91.90;;;;;;5094037;28;20193;-69
2022/11/26 00:54:18;;;;;;;7.70;1.30;;;26.10;95.30;;;;;;5093928;28;20265;-71
2022/11/26 00:56:47;;;;;;;5.50;1.50;;;25.90;95.70;;;;;;5094012;28;20178;-67
2022/11/26 00:59:19;;;;;;;2.80;1.33;;;25.90;96.50;;;;;;5093848;28;20175;-67
2022/11/26 01:01:47;;;;;;;7.53;1.70;;;25.30;99.90;;;;;;5093450;28;20190;-67
2022/11/26 01:04:15;;;;;;;5.83;1.80;;;25.10;99.90;;;;;;5093480;28;20298;-66
2022/11/26 01:06:45;;;;;;;1.77;1.00;;;25.40;99.90;;;;;;5093705;28;20201;-67
2022/11/26 01:09:21;;;;;;;3.50;1.77;;;26.20;99.90;;;;;;5093694;28;20185;-68
2022/11/26 01:11:51;;;;;;;1.93;1.20;;;26.70;99.10;;;;;;5093766;28;20179;-67
2022/11/26 01:14:20;;;;;;;6.00;2.00;;;27.20;96.80;;;;;;5093395;28;20175;-73
2022/11/26 01:16:55;;;;;;;6.97;2.17;;;26.70;97.20;;;;;;5093312;28;20175;-68
2022/11/26 01:19:23;;;;;;;6.17;1.80;;;25.60;99.90;;;;;;5093621;28;20174;-68
2022/11/26 01:21:51;;;;;;;5.40;1.77;;;25.10;99.90;;;;;;5093321;28;20629;-67
2022/11/26 01:24:19;;;;;;;3.33;1.80;;;25.20;99.90;;;;;;5093562;28;20557;-68
2022/11/26 01:26:47;;;;;;;3.60;1.90;;;25.10;99.90;;;;;;5093081;28;20690;-67
2022/11/26 01:29:19;;;;;;;6.03;1.93;;;24.70;99.90;;;;;;5090938;28;20187;-72
2022/11/26 01:31:47;;;;;;;3.47;2.00;;;25.70;99.90;;;;;;5078336;28;20553;-71
2022/11/26 01:34:15;;;;;;;4.00;1.90;;;26.30;99.90;;;;;;5086478;28;20576;-71
2022/11/26 01:36:43;;;;;;;7.67;2.67;;;26.00;99.90;;;;;;5092984;28;20516;-70
2022/11/26 01:39:19;;;;;;;5.30;2.60;;;26.10;99.90;;;;;;5091311;28;20180;-71
2022/11/26 01:42:05;;;;;;;6.93;2.10;;;26.40;99.90;;;;;;5073042;28;20179;-71
2022/11/26 01:44:35;;;;;;;6.13;1.90;;;26.70;99.90;;;;;;5065430;28;20685;-71
2022/11/26 01:47:23;;;;;;;4.27;2.27;;;27.30;99.90;;;;;;5085153;28;20568;-70
2022/11/26 01:50:27;;;;;;;6.73;1.93;;;27.40;99.70;;;;;;5085109;28;20184;-74
2022/11/26 01:53:01;;;;;;;2.10;1.67;;;27.80;99.90;;;;;;5072940;28;20175;-69
2022/11/26 01:55:40;;;;;;;4.43;2.00;;;27.40;99.90;;;;;;5075753;28;20219;-71
2022/11/26 01:58:12;;;;;;;5.97;2.37;;;27.60;95.10;;;;;;5086607;28;20183;-73
2022/11/26 02:00:40;;;;;;;4.40;2.10;;;27.60;95.60;;;;;;5078253;28;20218;-73
2022/11/26 02:03:09;;;;;;;5.83;2.27;;;27.20;94.60;;;;;;5077734;28;20595;-69
2022/11/26 02:06:04;;;;;;;4.43;2.33;;;27.10;99.90;;;;;;5072746;28;20210;-74
2022/11/26 02:08:34;;;;;;;6.83;2.00;;;27.40;97.60;;;;;;5081676;28;20677;-68
2022/11/26 02:11:31;;;;;;;4.63;2.30;;;27.50;96.70;;;;;;5081671;28;20258;-71
2022/11/26 02:14:08;;;;;;;5.57;2.07;;;27.90;98.00;;;;;;5088281;28;20282;-69
2022/11/26 02:17:03;;;;;;;8.13;2.53;;;27.70;99.90;;;;;;5075749;28;20180;-73
2022/11/26 02:19:52;;;;;;;6.03;1.97;;;27.80;99.90;;;;;;5072684;28;20180;-70
2022/11/26 02:22:46;;;;;;;4.43;2.07;;;27.60;94.90;;;;;;5072494;28;20198;-69
2022/11/26 02:25:45;;;;;;;7.17;2.10;;;27.90;97.80;;;;;;5072632;28;20310;-69
2022/11/26 02:28:55;;;;;;;4.43;1.90;;;27.60;94.00;;;;;;5079445;28;20291;-66
2022/11/26 02:31:40;;;;;;;6.93;2.73;;;27.30;99.30;;;;;;5071905;28;20178;-66
2022/11/26 02:34:26;;;;;;;7.20;2.13;;;27.40;98.30;;;;;;5072634;28;20665;-67
2022/11/26 02:37:12;;;;;;;8.63;2.53;;;27.60;95.00;;;;;;5072847;28;20180;-67
2022/11/26 02:39:40;;;;;;;4.27;2.30;;;27.90;92.00;;;;;;5071054;28;20576;-67
2022/11/26 02:42:32;;;;;;;4.93;2.40;;;27.60;93.20;;;;;;5072207;28;20176;-67
2022/11/26 02:45:13;;;;;;;6.07;2.33;;;27.60;92.70;;;;;;5073348;28;20195;-67
2022/11/26 02:47:45;;;;;;;7.90;2.00;;;27.90;99.10;;;;;;5076501;28;20168;-68
2022/11/26 02:50:24;;;;;;;8.20;2.40;;;28.00;93.40;;;;;;5074976;28;20229;-67
2022/11/26 02:52:55;;;;;;;9.27;2.77;;;28.40;95.50;;;;;;5076286;28;20175;-68
2022/11/26 02:55:28;;;;;;;4.73;2.20;;;28.70;95.00;;;;;;5075954;28;20653;-67
2022/11/26 02:57:57;;;;;;;6.33;1.80;;;28.30;92.40;;;;;;5076258;28;20190;-68
2022/11/26 03:00:25;;;;;;;5.77;2.17;;;27.50;92.10;;;;;;5076513;28;20164;-68
2022/11/26 03:03:02;;;;;;;8.37;2.80;;;26.70;95.50;;;;;;5075949;28;20220;-68
2022/11/26 03:05:34;;;;;;;8.07;2.10;;;26.50;96.60;;;;;;5075850;28;20517;-68
2022/11/26 03:08:04;;;;;;;4.67;2.27;;;26.40;99.40;;;;;;5075860;28;20553;-68
2022/11/26 03:10:33;;;;;;;6.23;2.30;;;26.90;98.90;;;;;;5075817;28;20176;-68
2022/11/26 03:13:00;;;;;;;2.77;1.60;;;27.00;98.10;;;;;;5075879;28;20180;-68
2022/11/26 03:15:28;;;;;;;5.73;2.10;;;27.30;99.90;;;;;;5075704;28;20245;-68
2022/11/26 03:17:56;;;;;;;5.87;1.77;;;27.40;99.90;;;;;;5075638;28;20183;-72
2022/11/26 03:20:24;;;;;;;5.97;2.20;;;27.70;97.70;;;;;;5075715;28;20274;-67
2022/11/26 03:22:52;;;;;;;6.07;2.47;;;27.30;96.60;;;;;;5075504;28;20698;-68
2022/11/26 03:25:20;;;;;;;6.10;2.27;;;27.10;97.90;;;;;;5075644;28;20180;-68
2022/11/26 03:27:48;;;;;;;8.43;2.37;;;27.10;99.90;;;;;;5075683;28;20173;-68
2022/11/26 03:30:15;;;;;;;6.77;1.80;;;27.30;99.90;;;;;;5075493;28;20538;-70
2022/11/26 03:32:43;;;;;;;7.30;2.03;;;27.70;99.90;;;;;;5075601;28;20229;-68
2022/11/26 03:35:11;;;;;;;6.10;2.00;;;27.60;95.60;;;;;;5075413;28;20168;-67
2022/11/26 03:37:39;;;;;;;9.37;2.30;;;27.40;99.90;;;;;;5075416;28;20176;-68
2022/11/26 03:40:08;;;;;;;9.20;2.50;;;27.40;97.80;;;;;;5075307;28;20533;-67
2022/11/26 03:42:37;;;;;;;6.13;2.10;;;27.00;99.90;;;;;;5075117;28;20176;-66
2022/11/26 03:45:05;;;;;;;6.10;1.90;;;26.90;99.90;;;;;;5075097;28;20764;-67
2022/11/26 03:47:33;;;;;;;6.00;1.90;;;26.90;99.90;;;;;;5075173;28;20182;-67
2022/11/26 03:50:01;;;;;;;6.70;2.00;;;26.80;99.90;;;;;;5075068;28;20236;-67
2022/11/26 03:52:28;;;;;;;8.60;2.67;;;27.00;99.90;;;;;;5073562;28;20203;-67
2022/11/26 03:54:56;;;;;;;3.73;2.03;;;27.20;99.90;;;;;;5075165;28;20176;-66
2022/11/26 03:57:24;;;;;;;5.90;2.20;;;27.60;99.90;;;;;;5074662;28;20648;-69
2022/11/26 03:59:52;;;;;;;7.37;2.23;;;27.60;99.90;;;;;;5074934;28;20259;-66
2022/11/26 04:02:19;;;;;;;9.43;2.50;;;27.90;99.90;;;;;;5074600;28;20273;-66
2022/11/26 04:04:47;;;;;;;7.33;2.37;;;27.80;99.90;;;;;;5074786;28;20198;-71
2022/11/26 04:07:15;;;;;;;6.93;2.37;;;28.00;99.90;;;;;;5074916;28;20645;-67
2022/11/26 04:09:43;;;;;;;5.67;2.40;;;28.00;99.90;;;;;;5074776;28;20175;-67
2022/11/26 04:12:11;;;;;;;8.83;2.00;;;27.30;99.90;;;;;;5074697;28;20187;-69
2022/11/26 04:14:38;;;;;;;5.93;2.00;;;27.10;99.90;;;;;;5075082;28;20249;-67
2022/11/26 04:17:06;;;;;;;10.83;2.13;;;27.40;99.90;;;;;;5074531;28;20638;-71
2022/11/26 04:19:34;;;;;;;6.30;2.47;;;27.10;99.90;;;;;;5074719;28;20199;-66
2022/11/26 04:22:02;;;;;;;9.17;3.03;;;26.80;99.90;;;;;;5074307;28;20230;-69
2022/11/26 04:24:30;;;;;;;6.17;2.20;;;26.70;99.90;;;;;;5074433;28;20257;-67
2022/11/26 04:26:58;;;;;;;4.90;2.53;;;27.20;99.90;;;;;;5074642;28;20203;-67
2022/11/26 04:29:25;;;;;;;8.00;2.20;;;27.10;99.90;;;;;;5074610;28;20184;-67
2022/11/26 04:31:53;;;;;;;6.13;2.30;;;26.60;99.90;;;;;;5074418;28;20179;-67
2022/11/26 04:34:21;;;;;;;5.60;2.30;;;26.30;99.90;;;;;;5074527;28;20176;-71
2022/11/26 04:36:49;;;;;;;8.17;2.73;;;26.70;99.90;;;;;;5074207;28;20187;-68
2022/11/26 04:39:16;;;;;;;6.77;2.50;;;26.80;99.90;;;;;;5074215;28;20172;-71
2022/11/26 04:41:44;;;;;;;11.13;2.67;;;26.70;99.90;;;;;;5074068;28;20229;-70
2022/11/26 04:44:12;;;;;;;8.10;1.93;;;26.50;99.90;;;;;;5073877;28;20250;-73
2022/11/26 04:46:40;;;;;;;4.83;2.27;;;26.30;99.90;;;;;;5074232;28;20670;-69
2022/11/26 04:49:08;;;;;;;6.77;2.37;;;26.30;99.90;;;;;;5074021;28;20259;-71
2022/11/26 04:51:36;;;;;;;3.93;2.03;;;26.70;99.90;;;;;;5074186;28;20208;-72
2022/11/26 04:54:04;;;;;;;5.87;2.27;;;27.30;99.90;;;;;;5074046;28;20613;-70
2022/11/26 04:56:32;;;;;;;9.43;2.73;;;27.10;99.90;;;;;;5072612;28;20187;-73
2022/11/26 04:58:59;;;;;;;7.97;2.20;;;26.80;99.90;;;;;;5072669;28;20274;-73
2022/11/26 05:01:27;;;;;;;5.20;2.00;;;26.70;99.90;;;;;;5073486;28;20176;-70
2022/11/26 05:03:56;;;;;;;8.87;2.27;;;26.90;99.90;;;;;;5073520;28;20259;-71
2022/11/26 05:06:24;;;;;;;7.27;2.30;;;27.10;99.90;;;;;;5073709;28;20207;-72
2022/11/26 05:08:51;;;;;;;11.50;1.87;;;27.10;99.90;;;;;;5072896;28;20167;-73
2022/11/26 05:11:19;;;;;;;7.93;2.03;;;26.90;99.90;;;;;;5073649;28;20163;-73
2022/11/26 05:13:47;;;;;;;4.43;2.00;;;26.30;99.90;;;;;;5073582;28;20217;-72
2022/11/26 05:16:15;;;;;;;6.93;2.37;;;25.80;99.90;;;;;;5073345;28;20183;-71
2022/11/26 05:18:43;;;;;;;6.90;2.20;;;25.60;99.90;;;;;;5073443;28;20180;-71
2022/11/26 05:21:11;;;;;;;7.70;2.00;;;25.70;99.90;;;;;;5073350;28;20176;-71
2022/11/26 05:23:38;;;;;;;4.00;1.73;;;25.80;99.90;;;;;;5073405;28;20238;-69
2022/11/26 05:26:06;;;;;;;4.57;1.60;;;26.10;99.90;;;;;;5073339;28;20164;-72
2022/11/26 05:28:34;;;;;;;4.70;1.80;;;25.70;99.90;;;;;;5073185;28;20172;-71
2022/11/26 05:31:03;;;;;;;7.90;2.37;;;25.50;99.90;;;;;;5073495;28;20229;-68
2022/11/26 05:33:31;;;;;;;4.27;1.83;;;25.30;99.90;;;;;;5073211;28;20589;-68
2022/11/26 05:35:59;;;;;;;5.87;2.40;;;25.40;99.90;;;;;;5073335;28;20233;-73
2022/11/26 05:38:27;;;;;;;6.13;1.77;;;25.50;99.90;;;;;;5073252;28;20211;-69
2022/11/26 05:40:55;;;;;;;5.70;2.13;;;25.10;99.90;;;;;;5073286;28;20183;-69
2022/11/26 05:43:23;;;;;;;7.80;1.40;;;25.20;99.90;;;;;;5073162;28;20261;-72
2022/11/26 05:45:50;;;;;;;5.03;1.67;;;25.40;99.90;;;;;;5073023;28;20244;-69
2022/11/26 05:48:18;;;;;;;6.77;1.60;;;25.50;99.90;;;;;;5072923;28;20603;-69
2022/11/26 05:50:46;;;;;;;6.33;1.70;;;25.20;99.90;;;;;;5076285;28;20176;-73
2022/11/26 05:53:14;;;;;;;7.93;1.63;;;25.10;99.90;;;;;;5084354;28;20187;-78
2022/11/26 05:55:42;;;;;;;6.40;1.83;;;24.80;99.90;;;;;;5087410;28;20180;-75
2022/11/26 05:58:09;;;;;;;6.30;1.50;;;24.80;99.90;;;;;;5093222;28;20186;-70
2022/11/26 06:00:37;;;;;;;6.20;1.70;;;24.80;99.90;;;;;;5093086;28;20184;-74
2022/11/26 06:03:05;;;;;;;2.97;1.50;;;24.80;99.90;;;;;;5074519;28;20243;-77
2022/11/26 06:05:33;;;;;;;5.83;2.03;;;24.90;99.90;;;;;;5072802;28;20525;-76
2022/11/26 06:08:01;;;;;;;9.03;1.90;;;25.00;99.90;;;;;;5088572;28;20179;-72
2022/11/26 06:10:28;;;;;;;3.63;1.27;;;24.80;99.90;;;;;;5091822;28;20244;-74
2022/11/26 06:12:56;;;;;;;5.80;1.60;;;24.60;99.90;;;;;;5093038;28;20198;-75
2022/11/26 06:15:24;;;;;;;11.27;1.80;;;24.50;99.90;;;;;;5093089;28;20178;-78
2022/11/26 06:17:52;;;;;;;7.00;1.50;;;24.40;99.90;;;;;;5088438;28;20180;-74
2022/11/26 06:20:20;;;;;;;7.47;1.70;;;24.40;99.90;;;;;;5076799;28;20613;-70
2022/11/26 06:22:47;;;;;;;4.17;1.50;;;24.10;99.90;;;;;;5076551;28;20211;-76
2022/11/26 06:25:16;;;;;;;6.27;1.93;;;24.10;99.90;;;;;;5076808;28;20182;-76
2022/11/26 06:27:44;;;;;;;6.37;1.23;;;24.20;99.90;;;;;;5076801;28;20248;-75
2022/11/26 06:30:12;;;;;;;6.70;1.87;;;24.20;99.90;;;;;;5086609;28;20186;-76
2022/11/26 06:32:40;;;;;;;3.87;1.40;;;24.20;99.90;;;;;;5078267;28;20179;-78
2022/11/26 06:35:08;;;;;;;10.57;1.90;;;24.30;99.90;;;;;;5076538;28;20537;-72
2022/11/26 06:37:37;;;;;;;5.83;1.37;;;24.30;99.90;;;;;;5076454;28;20236;-77
2022/11/26 06:40:05;;;;;;;7.53;1.77;;;23.80;99.90;;;;;;5076711;28;20203;-75
2022/11/26 06:42:33;;;;;;;6.57;1.43;;;23.50;99.90;;;;;;5093147;28;20194;-78
2022/11/26 06:45:00;;;;;;;9.30;1.83;;;23.70;99.90;;;;;;5096350;28;20186;-78
2022/11/26 06:47:28;;;;;;;4.23;1.53;;;23.90;99.90;;;;;;5096626;28;20177;-76
2022/11/26 06:49:56;;;;;;;7.03;1.67;;;23.60;99.90;;;;;;5096659;28;20175;-75
2022/11/26 06:52:24;;;;;;;6.83;1.60;;;23.60;99.90;;;;;;5080658;28;20237;-75
2022/11/26 06:54:52;;;;;;;5.53;1.47;;;23.50;99.90;;;;;;5078533;28;20294;-80
2022/11/26 06:57:20;;;;;;;6.40;2.03;;;23.40;99.90;;;;;;5084299;28;20179;-77
2022/11/26 06:59:47;;;;;;;8.57;1.60;;;23.40;99.90;;;;;;5080459;28;20248;-77
2022/11/26 07:02:15;;;;;;;7.07;1.60;;;23.20;99.90;;;;;;5075760;28;20187;-76
2022/11/26 07:04:43;;;;;;;5.13;1.50;;;23.10;99.90;;;;;;5074319;28;20304;-73
2022/11/26 07:07:11;;;;;;;8.13;1.40;;;23.00;99.90;;;;;;5074591;28;20543;-78
2022/11/26 07:09:40;;;;;;;6.30;1.60;;;23.10;99.90;;;;;;5073695;28;20184;-76
2022/11/26 07:12:08;;;;;;;5.23;1.57;;;22.90;99.90;;;;;;5088821;28;20187;-76
2022/11/26 07:14:36;;;;;;;5.70;1.73;;;22.80;99.90;;;;;;5073371;28;20183;-70
2022/11/26 07:17:03;;;;;;;8.93;1.67;;;22.70;99.90;;;;;;5072198;28;20191;-75
2022/11/26 07:19:31;;;;;;;3.10;1.57;;;22.70;99.90;;;;;;5062414;28;20625;-75
2022/11/26 07:21:59;;;;;;;7.13;1.57;;;22.80;99.90;;;;;;5077892;28;20191;-76
2022/11/26 07:24:27;;;;;;;4.87;1.30;;;22.80;99.90;;;;;;5069677;28;20215;-74
2022/11/26 07:26:55;;;;;;;7.07;1.50;;;22.80;99.90;;;;;;5070681;28;20181;-77
2022/11/26 07:29:22;;;;;;;7.23;1.63;;;22.80;99.90;;;;;;5061945;28;20191;-72
2022/11/26 07:31:50;;;;;;;4.47;1.40;;;22.80;99.90;;;;;;5088793;28;20172;-76
2022/11/26 07:34:18;;;;;;;4.50;1.23;;;23.10;99.90;;;;;;5073911;28;20184;-78
2022/11/26 07:36:46;;;;;;;8.60;1.70;;;23.10;99.90;;;;;;5073711;28;20251;-77
2022/11/26 07:39:14;;;;;;;6.77;1.50;;;22.80;99.90;;;;;;5085389;28;20185;-74
2022/11/26 07:41:41;;;;;;;6.90;2.10;;;22.40;99.90;;;;;;5073964;28;20165;-75
2022/11/26 07:44:13;;;;;;;6.00;1.50;;;22.00;99.90;;;;;;5074560;28;21000;-77
2022/11/26 07:46:41;;;;;;;5.50;2.27;;;22.00;99.90;;;;;;5074250;28;20251;-76
2022/11/26 07:49:09;;;;;;;6.27;1.63;;;22.00;99.90;;;;;;5073740;28;20237;-71
2022/11/26 07:51:38;;;;;;;6.17;1.40;;;21.90;99.90;;;;;;5074212;28;20180;-75
2022/11/26 07:54:07;;;;;;;5.53;1.47;;;21.90;99.90;;;;;;5073994;28;20230;-70
2022/11/26 07:56:36;;;;;;;3.90;1.60;;;22.10;99.90;;;;;;5075636;28;20272;-72
2022/11/26 07:59:04;;;;;;;6.53;1.37;;;22.20;99.90;;;;;;5074943;28;20202;-79
2022/11/26 08:01:32;;;;;;;5.60;1.80;;;22.40;99.90;;;;;;5073780;28;20203;-70
2022/11/26 08:04:04;;;;;;;5.03;1.63;;;22.50;99.90;;;;;;5073253;28;20223;-73
2022/11/26 08:06:32;;;;;;;6.83;1.63;;;22.70;99.90;;;;;;5073580;28;20581;-74
2022/11/26 08:09:01;;;;;;;5.50;1.20;;;22.90;99.90;;;;;;5077041;28;20188;-69
2022/11/26 08:11:32;;;;;;;4.67;1.50;;;22.80;99.90;;;;;;5093240;28;20562;-73
2022/11/26 08:14:03;;;;;;;8.80;2.20;;;22.70;99.90;;;;;;5091419;28;20215;-69
2022/11/26 08:16:31;;;;;;;10.77;1.90;;;22.50;99.90;;;;;;5088206;28;20491;-68
2022/11/26 08:19:02;;;;;;;10.03;1.93;;;22.30;99.90;;;;;;5091564;28;20313;-73
2022/11/26 08:21:30;;;;;;;11.20;1.90;;;22.00;99.90;;;;;;5078393;28;20187;-74
2022/11/26 08:23:57;;;;;;;9.67;2.37;;;21.90;99.90;;;;;;5060377;28;20208;-69
2022/11/26 08:26:26;;;;;;;6.00;1.57;;;21.70;99.90;;;;;;5082402;28;20179;-75
2022/11/26 08:28:53;;;;;;;9.60;1.60;;;21.60;99.90;;;;;;5077719;28;20558;-69
2022/11/26 08:31:23;;;;;;;5.40;1.90;;;21.50;99.90;;;;;;5089141;28;20194;-76
2022/11/26 08:33:51;;;;;;;6.77;1.60;;;21.30;99.90;;;;;;5093170;28;20609;-73
2022/11/26 08:36:19;;;;;;;11.60;1.90;;;21.00;99.90;;;;;;5093324;28;20362;-70
2022/11/26 08:38:47;;;;;;;12.63;1.70;;;20.80;99.90;;;;;;5081989;28;20205;-69
2022/11/26 08:41:14;;;;;;;7.23;1.43;;;20.70;99.90;;;;;;5072703;28;20646;-68
2022/11/26 08:43:42;;;;;;;5.80;1.63;;;20.60;99.90;;;;;;5071853;28;20199;-68
2022/11/26 08:46:11;;;;;;;6.97;1.87;;;20.60;99.90;;;;;;5073150;28;20641;-68
2022/11/26 08:48:39;;;;;;;5.33;1.40;;;20.50;99.90;;;;;;5072585;28;20180;-68
2022/11/26 08:51:10;;;;;;;6.20;1.73;;;20.40;99.90;;;;;;5074022;28;20291;-68
2022/11/26 08:53:39;;;;;;;8.67;2.00;;;20.40;99.90;;;;;;5083386;28;20178;-68
2022/11/26 08:56:10;;;;;;;7.47;1.63;;;20.40;99.90;;;;;;5078083;28;20235;-68
2022/11/26 08:58:41;;;;;;;8.43;2.10;;;20.30;99.90;;;;;;5073809;28;20288;-72
2022/11/26 09:01:31;;;;;;;7.10;2.27;;;20.20;99.90;;;;;;5060513;28;20191;-69
2022/11/26 09:04:00;;;;;;;5.37;1.47;;;20.10;99.90;;;;;;5072092;28;20244;-72
2022/11/26 09:06:31;;;;;;;6.60;1.93;;;20.00;99.90;;;;;;5072745;28;20198;-69
2022/11/26 09:09:12;;;;;;;6.67;1.37;;;20.00;99.90;;;;;;5075249;28;20231;-68
2022/11/26 09:11:52;;;;;;;9.80;1.90;;;19.90;99.90;;;;;;5090492;28;20176;-67
2022/11/26 09:14:25;;;;;;;5.13;1.40;;;19.90;99.90;;;;;;5066143;28;20275;-68
2022/11/26 09:16:54;;;;;;;5.23;1.60;;;19.90;99.90;;;;;;5072452;28;20302;-69
2022/11/26 09:19:23;;;;;;;5.13;1.53;;;19.90;99.90;;;;;;5077556;28;20183;-68
2022/11/26 09:21:51;;;;;;;12.17;1.90;;;19.80;99.90;;;;;;5092149;28;20194;-75
2022/11/26 09:24:20;;;;;;;7.13;2.20;;;19.70;99.90;;;;;;5092425;28;20227;-68
2022/11/26 09:26:48;;;;;;;6.07;1.60;;;19.70;99.90;;;;;;5086148;28;20522;-68
2022/11/26 09:29:22;;;;;;;5.40;1.87;;;19.60;99.90;;;;;;5072070;28;20551;-68
2022/11/26 09:31:51;;;;;;;5.10;1.80;;;19.60;99.90;;;;;;5068705;28;20182;-71
2022/11/26 09:34:19;;;;;;;6.20;1.53;;;19.60;99.90;;;;;;5089787;28;20685;-72
2022/11/26 09:36:47;;;;;;;4.23;1.50;;;19.50;99.90;;;;;;5091570;28;20238;-68
2022/11/26 09:39:15;;;;;;;6.03;1.67;;;19.60;99.90;;;;;;5093518;28;20168;-68
2022/11/26 09:42:08;;;;;;;7.43;1.73;;;19.60;99.90;;;;;;5085558;28;20179;-68
2022/11/26 09:45:02;;;;;;;9.37;2.20;;;19.50;99.90;;;;;;5073393;28;20673;-68
2022/11/26 09:47:42;;;;;;;5.37;1.47;;;19.50;99.90;;;;;;5073129;28;20164;-68
2022/11/26 09:50:16;;;;;;;14.63;2.07;;;19.40;99.90;;;;;;5077704;28;20228;-68
2022/11/26 09:53:00;;;;;;;8.77;2.03;;;19.40;99.90;;;;;;5080365;28;20694;-68
2022/11/26 09:55:34;;;;;;;8.17;1.87;;;19.40;99.90;;;;;;5072719;28;20168;-74
2022/11/26 09:58:14;;;;;;;7.77;1.93;;;19.40;99.90;;;;;;5074943;28;20190;-68
2022/11/26 10:00:48;;;;;;;10.13;2.20;;;19.30;99.90;;;;;;5093051;28;20289;-68
2022/11/26 10:03:24;;;;;;;5.97;1.90;;;19.30;99.90;;;;;;5078051;28;20229;-68
2022/11/26 10:06:14;;;;;;;9.27;1.97;;;19.30;99.90;;;;;;5072777;28;20657;-69
2022/11/26 10:09:10;;;;;;;6.00;2.13;;;19.20;99.90;;;;;;5072470;28;20225;-69
2022/11/26 10:11:54;;;;;;;8.13;2.20;;;19.20;99.90;;;;;;5054227;28;20180;-74
2022/11/26 10:14:45;;;;;;;7.20;1.60;;;19.10;99.90;;;;;;5093485;28;20169;-68
2022/11/26 10:17:25;;;;;;;4.87;1.77;;;19.00;99.90;;;;;;5093306;28;20232;-69
2022/11/26 10:20:28;;;;;;;7.80;2.10;;;19.00;99.90;;;;;;5093680;28;20171;-68
2022/11/26 10:23:24;;;;;;;6.03;1.70;;;19.00;99.90;;;;;;5080179;28;20325;-68
2022/11/26 10:26:00;;;;;;;7.47;2.00;;;18.90;99.90;;;;;;5073634;28;20182;-68
2022/11/26 10:28:48;;;;;;;6.13;2.00;;;18.70;99.90;;;;;;5092992;28;20652;-68
2022/11/26 10:31:30;;;;;;;8.20;1.83;;;18.60;99.90;;;;;;5092367;28;20179;-69
2022/11/26 10:34:02;;;;;;;6.67;1.40;;;18.60;99.90;;;;;;5073054;28;20176;-68
2022/11/26 10:36:42;;;;;;;8.30;2.33;;;18.60;99.90;;;;;;5072558;28;20210;-68
2022/11/26 10:39:14;;;;;;;7.20;2.17;;;18.60;99.90;;;;;;5072678;28;20175;-68
2022/11/26 10:41:43;;;;;;;8.77;2.20;;;18.60;99.90;;;;;;5072778;28;20176;-68
2022/11/26 10:44:32;;;;;;;8.87;2.53;;;18.70;99.90;;;;;;5092724;28;20655;-68
2022/11/26 10:47:20;;;;;;;8.00;2.10;;;18.60;99.90;;;;;;5092933;28;20171;-68
2022/11/26 10:49:50;;;;;;;6.67;2.10;;;18.70;99.90;;;;;;5090993;28;20202;-68
2022/11/26 10:52:26;;;;;;;8.00;2.27;;;18.70;99.90;;;;;;5087504;28;20181;-69
2022/11/26 10:55:30;;;;;;;6.10;1.70;;;18.60;99.90;;;;;;5072265;28;20181;-68
2022/11/26 10:58:04;;;;;;;9.20;2.40;;;18.60;99.90;;;;;;5060928;28;20188;-68
2022/11/26 11:00:32;;;;;;;10.23;2.40;;;18.60;99.90;;;;;;5072786;28;20532;-68
2022/11/26 11:03:02;;;;;;;8.10;1.70;;;18.60;99.90;;;;;;5082822;28;20227;-68
2022/11/26 11:05:31;;;;;;;6.67;1.90;;;18.60;99.90;;;;;;5092692;28;20228;-68
2022/11/26 11:07:58;;;;;;;9.53;2.00;;;18.50;99.90;;;;;;5096494;28;20183;-68
2022/11/26 11:10:26;;;;;;;10.43;2.33;;;18.50;99.90;;;;;;5096387;28;20175;-68
2022/11/26 11:13:09;;;;;;;7.97;1.63;;;18.50;99.90;;;;;;5086029;28;20185;-68
2022/11/26 11:15:39;;;;;;;8.50;2.07;;;18.50;99.90;;;;;;5076109;28;20274;-68
2022/11/26 11:18:26;;;;;;;5.27;2.00;;;18.40;99.90;;;;;;5056107;28;20196;-68
2022/11/26 11:21:02;;;;;;;6.97;2.10;;;18.30;99.90;;;;;;5067715;28;20229;-72
2022/11/26 11:23:34;;;;;;;6.57;1.97;;;18.30;99.90;;;;;;5090119;28;20213;-67
2022/11/26 11:26:08;;;;;;;7.40;2.07;;;18.30;99.90;;;;;;5095756;28;20175;-67
2022/11/26 11:28:42;;;;;;;9.40;2.60;;;18.30;99.90;;;;;;5096143;28;20547;-67
2022/11/26 11:31:18;;;;;;;10.63;2.53;;;18.40;99.90;;;;;;5096207;28;20201;-67
2022/11/26 11:33:46;;;;;;;6.27;2.00;;;18.30;99.90;;;;;;5076622;28;20178;-67
2022/11/26 11:36:17;;;;;;;6.43;2.33;;;18.30;99.90;;;;;;5075669;28;20642;-68
2022/11/26 11:39:01;;;;;;;11.20;2.90;;;18.10;99.90;;;;;;5075485;28;20172;-67
2022/11/26 11:41:42;;;;;;;9.80;2.33;;;18.10;99.90;;;;;;5075337;28;20207;-71
2022/11/26 11:44:12;;;;;;;6.80;1.60;;;18.20;99.90;;;;;;5055264;28;20756;-67
2022/11/26 11:46:40;;;;;;;7.70;2.33;;;18.20;99.90;;;;;;5055397;28;20173;-67
2022/11/26 11:49:28;;;;;;;5.27;1.37;;;18.30;99.90;;;;;;5081289;28;20345;-72
2022/11/26 11:52:07;;;;;;;12.07;1.77;;;18.30;99.90;;;;;;5089211;28;20596;-67
2022/11/26 11:55:18;;;;;;;7.10;1.80;;;18.30;99.90;;;;;;5075637;28;20719;-68
2022/11/26 11:57:57;;;;;;;7.67;1.70;;;18.30;99.90;;;;;;5075984;28;20543;-69
2022/11/26 12:00:38;;;;;;;12.13;1.97;;;18.20;99.90;;;;;;5075166;28;20182;-68
2022/11/26 12:03:14;;;;;;;7.03;2.17;;;18.20;99.90;;;;;;5090417;28;20696;-67
2022/11/26 12:05:45;;;;;;;12.07;2.03;;;18.20;99.90;;;;;;5095594;28;20181;-68
2022/11/26 12:09:02;;;;;;;10.10;2.40;;;18.20;99.90;;;;;;5095465;28;20540;-67
2022/11/26 12:11:49;;;;;;;12.83;1.83;;;18.20;99.90;;;;;;5063870;28;20653;-67
2022/11/26 12:14:24;;;;;;;13.33;1.77;;;18.20;99.90;;;;;;5095347;28;20216;-68
2022/11/26 12:17:02;;;;;;;7.57;1.70;;;18.20;99.90;;;;;;5083542;28;20709;-68
2022/11/26 12:19:53;;;;;;;9.33;2.27;;;18.20;99.90;;;;;;5074855;28;20176;-67
2022/11/26 12:22:42;;;;;;;6.93;1.93;;;18.20;99.90;;;;;;5075843;28;20731;-72
2022/11/26 12:25:33;;;;;;;8.13;1.83;;;18.10;99.90;;;;;;5074741;28;20637;-69
2022/11/26 12:28:14;;;;;;;10.13;2.30;;;18.10;99.90;;;;;;5074709;28;20176;-68
2022/11/26 12:31:02;;;;;;;12.00;2.23;;;18.10;99.90;;;;;;5074663;28;20183;-68
2022/11/26 12:33:53;;;;;;;8.73;2.30;;;18.00;99.90;;;;;;5054541;28;20547;-70
2022/11/26 12:36:49;;;;;;;10.40;1.77;;;17.90;99.90;;;;;;5054902;28;20242;-68
2022/11/26 12:42:47;;;;;;;10.23;2.20;;;17.80;99.90;;;;;;5082278;28;20250;-67
2022/11/26 12:45:37;;;;;;;6.73;1.70;;;17.80;99.90;;;;;;5094780;28;20524;-67
2022/11/26 12:48:26;;;;;;;7.27;1.93;;;17.80;99.90;;;;;;5054571;28;20544;-69
2022/11/26 12:51:19;;;;;;;6.57;1.63;;;17.80;99.90;;;;;;5094546;28;20176;-68
2022/11/26 12:54:14;;;;;;;8.87;2.10;;;17.90;99.90;;;;;;5083034;28;20187;-69
2022/11/26 12:57:18;;;;;;;5.97;1.90;;;17.90;99.90;;;;;;5094378;28;20648;-71
2022/11/26 13:00:22;;;;;;;9.03;1.90;;;17.90;99.90;;;;;;5082015;28;20184;-68
2022/11/26 13:02:50;;;;;;;12.50;1.80;;;17.90;99.90;;;;;;5073547;28;20240;-68
2022/11/26 13:05:47;;;;;;;9.67;2.67;;;17.90;99.90;;;;;;5074004;28;20198;-69
2022/11/26 13:08:42;;;;;;;7.10;2.10;;;17.90;99.90;;;;;;5071945;28;20191;-68
2022/11/26 13:11:39;;;;;;;5.43;2.03;;;17.80;99.90;;;;;;5090196;28;20186;-66
2022/11/26 13:14:20;;;;;;;11.10;1.83;;;17.70;99.90;;;;;;5093721;28;20262;-66
2022/11/26 13:17:09;;;;;;;10.80;2.27;;;17.80;99.90;;;;;;5093917;28;20660;-68
2022/11/26 13:19:45;;;;;;;3.13;1.20;;;17.90;99.90;;;;;;5088481;28;20263;-69
2022/11/26 13:22:45;;;;;;;10.13;2.20;;;17.80;99.90;;;;;;5073829;28;20251;-69